createdAt,value
2023-03-22T00:02:26.674Z,8.85
2023-03-22T00:04:54.020Z,5.97
2023-03-22T00:07:20.749Z,6.03
2023-03-22T00:09:47.593Z,11.82
2023-03-22T00:12:14.452Z,8.10
2023-03-22T00:14:41.491Z,7.60
2023-03-22T00:17:08.296Z,10.80
2023-03-22T00:19:35.177Z,9.40
2023-03-22T00:22:02.138Z,10.90
2023-03-22T00:24:28.978Z,8.95
2023-03-22T00:26:56.589Z,11.50
2023-03-22T00:29:24.213Z,7.22
2023-03-22T00:31:54.507Z,9.30
2023-03-22T00:34:21.452Z,7.63
2023-03-22T00:36:48.591Z,6.10
2023-03-22T00:39:15.885Z,10.05
2023-03-22T00:41:43.067Z,7.93
2023-03-22T00:44:09.953Z,13.75
2023-03-22T00:46:37.577Z,9.57
2023-03-22T00:49:04.450Z,12.25
2023-03-22T00:51:33.034Z,12.50
2023-03-22T00:54:00.407Z,16.63
2023-03-22T00:56:29.053Z,12.48
2023-03-22T00:59:02.536Z,18.02
2023-03-22T01:01:30.563Z,13.40
2023-03-22T01:03:57.555Z,17.45
2023-03-22T01:06:24.479Z,13.82
2023-03-22T01:08:51.303Z,11.45
2023-03-22T01:11:18.488Z,13.40
2023-03-22T01:13:45.695Z,13.15
2023-03-22T01:16:12.815Z,11.20
2023-03-22T01:18:39.972Z,14.40
2023-03-22T01:21:08.189Z,15.30
2023-03-22T01:23:35.737Z,24.95
2023-03-22T01:26:02.863Z,13.95
2023-03-22T01:28:30.345Z,15.68
2023-03-22T01:31:01.637Z,17.95
2023-03-22T01:33:28.543Z,13.45
2023-03-22T01:35:55.828Z,8.75
2023-03-22T01:38:23.418Z,17.67
2023-03-22T01:40:55.864Z,14.52
2023-03-22T01:43:22.993Z,15.50
2023-03-22T01:45:53.896Z,16.63
2023-03-22T01:48:26.195Z,16.85
2023-03-22T01:50:56.250Z,11.93
2023-03-22T01:53:26.542Z,17.35
2023-03-22T01:55:54.846Z,23.30
2023-03-22T01:58:27.836Z,15.80
2023-03-22T02:00:58.632Z,12.65
2023-03-22T02:03:58.910Z,14.48
2023-03-22T02:06:26.970Z,18.70
2023-03-22T02:09:01.224Z,22.40
2023-03-22T02:11:34.868Z,15.63
2023-03-22T02:14:06.351Z,22.25
2023-03-22T02:17:04.600Z,15.00
2023-03-22T02:20:10.705Z,16.35
2023-03-22T02:22:46.576Z,21.33
2023-03-22T02:25:51.035Z,16.60
2023-03-22T02:28:33.784Z,13.80
2023-03-22T02:31:12.770Z,12.40
2023-03-22T02:34:28.760Z,29.15
2023-03-22T02:37:13.491Z,12.98
2023-03-22T02:40:06.184Z,16.73
2023-03-22T02:43:09.392Z,17.00
2023-03-22T02:45:50.916Z,13.98
2023-03-22T02:48:20.259Z,18.20
2023-03-22T02:50:56.191Z,17.40
2023-03-22T02:53:26.743Z,22.92
2023-03-22T02:55:58.789Z,22.63
2023-03-22T02:58:45.759Z,18.35
2023-03-22T03:01:18.662Z,16.27
2023-03-22T03:03:48.313Z,19.85
2023-03-22T03:06:18.554Z,25.23
2023-03-22T03:08:50.808Z,19.30
2023-03-22T03:11:18.290Z,18.55
2023-03-22T03:13:49.155Z,17.42
2023-03-22T03:16:19.156Z,17.85
2023-03-22T03:19:10.441Z,16.75
2023-03-22T03:22:16.660Z,17.00
2023-03-22T03:24:57.667Z,20.60
2023-03-22T03:27:33.137Z,16.45
2023-03-22T03:30:10.159Z,24.45
2023-03-22T03:33:05.055Z,12.57
2023-03-22T03:35:37.746Z,15.80
2023-03-22T03:38:10.064Z,29.90
2023-03-22T03:40:41.532Z,28.00
2023-03-22T03:43:09.091Z,19.75
2023-03-22T03:45:37.259Z,21.48
2023-03-22T03:48:11.382Z,24.20
2023-03-22T03:50:38.673Z,20.67
2023-03-22T03:53:05.890Z,20.60
2023-03-22T03:55:33.707Z,20.75
2023-03-22T03:58:00.601Z,21.48
2023-03-22T04:00:27.718Z,20.85
2023-03-22T04:03:24.260Z,22.40
2023-03-22T04:06:11.383Z,12.48
2023-03-22T04:08:41.868Z,10.60
2023-03-22T04:11:08.900Z,16.65
2023-03-22T04:13:37.065Z,16.13
2023-03-22T04:16:09.021Z,10.10
2023-03-22T04:18:38.041Z,11.18
2023-03-22T04:21:08.023Z,13.50
2023-03-22T04:23:47.044Z,14.63
2023-03-22T04:26:14.684Z,15.93
2023-03-22T04:28:55.109Z,12.80
2023-03-22T04:31:22.401Z,11.65
2023-03-22T04:34:00.487Z,11.13
2023-03-22T04:36:41.240Z,8.18
2023-03-22T04:39:44.032Z,10.77
2023-03-22T04:42:36.105Z,8.60
2023-03-22T04:45:13.373Z,8.15
2023-03-22T04:47:42.944Z,8.50
2023-03-22T04:50:11.342Z,16.05
2023-03-22T04:52:48.224Z,4.70
2023-03-22T04:55:15.419Z,9.82
2023-03-22T04:57:43.982Z,7.18
2023-03-22T05:00:11.423Z,13.20
2023-03-22T05:02:41.458Z,10.48
2023-03-22T05:05:16.401Z,14.15
2023-03-22T05:07:44.120Z,10.93
2023-03-22T05:10:11.277Z,11.20
2023-03-22T05:12:39.650Z,9.50
2023-03-22T05:15:16.256Z,5.13
2023-03-22T05:17:43.548Z,9.50
2023-03-22T05:20:11.700Z,5.05
2023-03-22T05:22:41.316Z,4.07
2023-03-22T05:25:11.681Z,5.30
2023-03-22T05:27:42.480Z,4.00
2023-03-22T05:30:30.274Z,2.90
2023-03-22T05:33:06.235Z,3.95
2023-03-22T05:35:42.399Z,5.72
2023-03-22T05:38:10.813Z,1.10
2023-03-22T05:40:42.084Z,1.60
2023-03-22T05:43:09.022Z,2.25
2023-03-22T05:45:38.125Z,3.92
2023-03-22T05:48:25.418Z,2.83
2023-03-22T05:50:52.442Z,3.17
2023-03-22T05:53:19.222Z,3.42
2023-03-22T05:55:53.267Z,2.45
2023-03-22T05:58:20.321Z,4.60
2023-03-22T06:00:51.471Z,6.65
2023-03-22T06:03:21.746Z,1.48
2023-03-22T06:05:55.292Z,4.80
2023-03-22T06:08:34.263Z,3.90
2023-03-22T06:11:01.273Z,4.88
2023-03-22T06:13:28.369Z,5.78
2023-03-22T06:15:55.633Z,4.18
2023-03-22T06:18:25.569Z,6.70
2023-03-22T06:21:02.013Z,7.10
2023-03-22T06:23:29.116Z,4.07
2023-03-22T06:25:56.199Z,5.05
2023-03-22T06:28:23.839Z,7.47
2023-03-22T06:30:54.529Z,7.40
2023-03-22T06:33:21.376Z,5.60
2023-03-22T06:35:54.229Z,4.10
2023-03-22T06:38:33.151Z,9.23
2023-03-22T06:41:00.095Z,6.97
2023-03-22T06:43:27.117Z,6.70
2023-03-22T06:46:01.772Z,9.45
2023-03-22T06:48:36.234Z,5.75
2023-03-22T06:51:10.480Z,5.72
2023-03-22T06:53:38.181Z,11.52
2023-03-22T06:56:05.695Z,7.45
2023-03-22T06:58:42.322Z,4.88
2023-03-22T07:01:09.356Z,6.85
2023-03-22T07:03:36.717Z,7.93
2023-03-22T07:06:08.875Z,10.73
2023-03-22T07:11:08.170Z,5.28
2023-03-22T07:13:35.821Z,6.97
2023-03-22T07:16:09.855Z,6.60
2023-03-22T07:18:43.489Z,5.22
2023-03-22T07:21:10.823Z,6.20
2023-03-22T07:23:40.803Z,8.57
2023-03-22T07:26:13.522Z,9.05
2023-03-22T07:33:52.380Z,8.13
2023-03-22T07:36:23.984Z,11.35
2023-03-22T07:38:52.301Z,7.38
2023-03-22T07:41:27.732Z,8.80
2023-03-22T07:44:18.051Z,9.35
2023-03-22T07:47:08.209Z,11.38
2023-03-22T07:50:14.227Z,6.18
2023-03-22T07:52:45.253Z,10.85
2023-03-22T07:55:14.239Z,15.65
2023-03-22T07:57:42.022Z,8.27
2023-03-22T08:00:10.615Z,8.48
2023-03-22T08:02:46.294Z,10.70
2023-03-22T08:05:28.345Z,11.63
2023-03-22T08:08:00.720Z,7.40
2023-03-22T08:10:27.879Z,6.25
2023-03-22T08:12:55.513Z,17.25
2023-03-22T08:15:25.684Z,15.30
2023-03-22T08:17:53.686Z,12.45
2023-03-22T08:20:39.765Z,9.15
2023-03-22T08:23:16.178Z,8.55
2023-03-22T08:26:18.776Z,4.45
2023-03-22T08:28:46.024Z,8.20
2023-03-22T08:31:15.891Z,12.32
2023-03-22T08:33:45.239Z,5.93
2023-03-22T08:36:15.442Z,5.68
2023-03-22T08:38:47.640Z,9.27
2023-03-22T08:41:17.309Z,8.30
2023-03-22T08:43:44.077Z,9.73
2023-03-22T08:46:11.346Z,6.35
2023-03-22T08:48:38.627Z,12.05
2023-03-22T08:51:11.142Z,11.18
2023-03-22T08:53:53.376Z,13.60
2023-03-22T08:56:50.343Z,8.15
2023-03-22T08:59:37.552Z,9.45
2023-03-22T09:02:16.812Z,7.22
2023-03-22T09:04:43.781Z,7.63
2023-03-22T09:07:11.103Z,12.60
2023-03-22T09:09:38.679Z,13.57
2023-03-22T09:12:06.048Z,14.05
2023-03-22T09:14:36.072Z,8.88
2023-03-22T09:17:04.296Z,8.35
2023-03-22T09:19:31.791Z,8.45
2023-03-22T09:21:58.977Z,13.57
2023-03-22T09:24:34.120Z,11.02
2023-03-22T09:27:03.477Z,13.13
2023-03-22T09:29:30.706Z,13.10
2023-03-22T09:31:59.176Z,13.95
2023-03-22T09:34:32.130Z,10.32
2023-03-22T09:37:02.403Z,13.45
2023-03-22T09:39:38.543Z,14.23
2023-03-22T09:42:11.055Z,14.35
2023-03-22T09:44:41.709Z,19.88
2023-03-22T09:47:17.990Z,18.80
2023-03-22T09:49:53.653Z,10.25
2023-03-22T09:52:21.766Z,15.27
2023-03-22T09:54:50.413Z,16.88
2023-03-22T09:57:34.154Z,12.27
2023-03-22T10:00:18.804Z,15.77
2023-03-22T10:02:50.406Z,14.80
2023-03-22T10:05:29.069Z,18.50
2023-03-22T10:07:58.750Z,15.52
2023-03-22T10:10:25.760Z,12.23
2023-03-22T10:13:07.709Z,15.35
2023-03-22T10:15:34.777Z,13.13
2023-03-22T10:18:02.847Z,14.15
2023-03-22T10:21:02.000Z,12.57
2023-03-22T10:23:35.256Z,9.40
2023-03-22T10:26:03.742Z,10.45
2023-03-22T10:28:39.733Z,11.10
2023-03-22T10:31:07.244Z,12.20
2023-03-22T10:33:39.071Z,14.05
2023-03-22T10:36:13.409Z,10.57
2023-03-22T10:38:48.583Z,9.27
2023-03-22T10:41:18.665Z,10.63
2023-03-22T10:43:49.259Z,8.27
2023-03-22T10:46:21.889Z,9.18
2023-03-22T10:48:52.015Z,5.70
2023-03-22T10:51:26.471Z,8.30
2023-03-22T10:53:55.822Z,9.02
2023-03-22T10:56:22.644Z,12.18
2023-03-22T10:58:50.243Z,11.32
2023-03-22T11:01:32.402Z,9.80
2023-03-22T11:04:15.508Z,9.18
2023-03-22T11:06:51.967Z,12.30
2023-03-22T11:09:21.541Z,16.23
2023-03-22T11:11:54.360Z,6.95
2023-03-22T11:14:32.019Z,11.13
2023-03-22T11:17:01.076Z,16.38
2023-03-22T11:19:32.257Z,9.68
2023-03-22T11:21:59.789Z,12.68
2023-03-22T11:24:27.847Z,6.15
2023-03-22T11:27:07.305Z,8.55
2023-03-22T11:29:44.620Z,8.43
2023-03-22T11:32:29.008Z,10.75
2023-03-22T11:35:05.875Z,7.25
2023-03-22T11:37:32.822Z,10.23
2023-03-22T11:40:01.998Z,9.95
2023-03-22T11:42:29.055Z,8.02
2023-03-22T11:44:56.974Z,9.65
2023-03-22T11:47:26.250Z,8.15
2023-03-22T11:49:57.310Z,10.07
2023-03-22T11:52:27.891Z,13.02
2023-03-22T11:54:56.239Z,9.90
2023-03-22T11:57:28.480Z,7.43
2023-03-22T12:00:07.241Z,11.35
2023-03-22T12:02:43.936Z,10.05
2023-03-22T12:05:18.575Z,7.00
2023-03-22T12:07:47.285Z,10.50
2023-03-22T12:10:19.014Z,5.55
2023-03-22T12:12:59.826Z,7.28
2023-03-22T12:15:29.742Z,9.80
2023-03-22T12:18:10.228Z,6.85
2023-03-22T12:20:52.470Z,9.48
2023-03-22T12:23:21.693Z,9.38
2023-03-22T12:25:55.464Z,9.90
2023-03-22T12:28:28.147Z,8.52
2023-03-22T12:30:57.739Z,10.27
2023-03-22T12:33:28.545Z,12.40
2023-03-22T12:36:19.812Z,5.70
2023-03-22T12:38:52.289Z,9.73
2023-03-22T12:41:26.457Z,6.47
2023-03-22T12:44:16.500Z,4.38
2023-03-22T12:46:52.805Z,2.85
2023-03-22T12:49:27.937Z,1.92
2023-03-22T12:51:56.918Z,3.58
2023-03-22T12:54:25.846Z,1.92
2023-03-22T12:56:53.095Z,3.08
2023-03-22T12:59:24.428Z,4.15
2023-03-22T13:02:12.473Z,4.22
2023-03-22T13:04:41.082Z,4.28
2023-03-22T13:07:13.906Z,3.60
2023-03-22T13:09:47.780Z,6.97
2023-03-22T13:12:18.526Z,4.80
2023-03-22T13:14:51.371Z,10.38
2023-03-22T13:17:22.560Z,6.85
2023-03-22T13:19:59.405Z,5.28
2023-03-22T13:22:38.330Z,4.32
2023-03-22T13:25:14.579Z,9.32
2023-03-22T13:27:54.604Z,7.18
2023-03-22T13:30:24.367Z,5.05
2023-03-22T13:32:56.507Z,7.63
2023-03-22T13:35:46.835Z,4.50
2023-03-22T13:38:30.079Z,5.45
2023-03-22T13:41:01.817Z,4.00
2023-03-22T13:43:36.159Z,6.25
2023-03-22T13:46:19.992Z,7.05
2023-03-22T13:48:48.638Z,5.32
2023-03-22T13:51:21.987Z,3.72
2023-03-22T13:54:07.480Z,7.43
2023-03-22T13:56:52.544Z,6.28
2023-03-22T13:59:27.091Z,7.03
2023-03-22T14:02:04.961Z,5.60
2023-03-22T14:04:39.522Z,7.80
2023-03-22T14:07:15.287Z,5.40
2023-03-22T14:10:12.713Z,8.35
2023-03-22T14:12:45.474Z,6.07
2023-03-22T14:15:17.196Z,7.47
2023-03-22T14:18:00.939Z,3.17
2023-03-22T14:20:32.904Z,1.83
